sensor_id;sensor_type;location;lat;lon;timestamp;pressure;altitude;pressure_sealevel;temperature;humidity
49949;BME280;35840;45.982;8.890;2024-02-28T00:02:04;98018.13;;;5.80;100.00
49949;BME280;35840;45.982;8.890;2024-02-28T00:04:31;98006.94;;;5.82;100.00
49949;BME280;35840;45.982;8.890;2024-02-28T00:06:58;98025.97;;;5.94;100.00
49949;BME280;35840;45.982;8.890;2024-02-28T00:09:25;98018.25;;;5.96;100.00
49949;BME280;35840;45.982;8.890;2024-02-28T00:11:52;98018.19;;;5.97;100.00
49949;BME280;35840;45.982;8.890;2024-02-28T00:14:19;98025.84;;;5.97;100.00
49949;BME280;35840;45.982;8.890;2024-02-28T00:16:46;98029.84;;;6.03;100.00
49949;BME280;35840;45.982;8.890;2024-02-28T00:19:14;98018.13;;;5.99;100.00
49949;BME280;35840;45.982;8.890;2024-02-28T00:21:41;98030.66;;;6.03;100.00
49949;BME280;35840;45.982;8.890;2024-02-28T00:24:09;98037.75;;;5.97;100.00
49949;BME280;35840;45.982;8.890;2024-02-28T00:26:40;98031.78;;;5.98;100.00
49949;BME280;35840;45.982;8.890;2024-02-28T00:29:09;98042.88;;;5.97;100.00
49949;BME280;35840;45.982;8.890;2024-02-28T00:31:36;98034.38;;;5.96;100.00
49949;BME280;35840;45.982;8.890;2024-02-28T00:34:03;98051.16;;;6.02;100.00
49949;BME280;35840;45.982;8.890;2024-02-28T00:36:30;98049.44;;;6.02;100.00
49949;BME280;35840;45.982;8.890;2024-02-28T00:39:13;98056.09;;;6.05;100.00
49949;BME280;35840;45.982;8.890;2024-02-28T00:41:40;98057.69;;;6.08;100.00
49949;BME280;35840;45.982;8.890;2024-02-28T00:44:07;98053.47;;;6.07;100.00
49949;BME280;35840;45.982;8.890;2024-02-28T00:46:35;98046.59;;;6.09;100.00
49949;BME280;35840;45.982;8.890;2024-02-28T00:49:02;98056.88;;;6.07;100.00
49949;BME280;35840;45.982;8.890;2024-02-28T00:51:29;98048.66;;;6.00;100.00
49949;BME280;35840;45.982;8.890;2024-02-28T00:53:55;98058.72;;;6.03;100.00
49949;BME280;35840;45.982;8.890;2024-02-28T00:56:23;98062.06;;;6.06;100.00
49949;BME280;35840;45.982;8.890;2024-02-28T00:58:51;98059.50;;;6.06;100.00
49949;BME280;35840;45.982;8.890;2024-02-28T01:01:17;98064.53;;;6.07;100.00
49949;BME280;35840;45.982;8.890;2024-02-28T01:03:44;98071.81;;;5.96;100.00
49949;BME280;35840;45.982;8.890;2024-02-28T01:06:11;98074.63;;;5.90;100.00
49949;BME280;35840;45.982;8.890;2024-02-28T01:08:38;98089.75;;;5.94;100.00
49949;BME280;35840;45.982;8.890;2024-02-28T01:11:05;98096.72;;;5.91;100.00
49949;BME280;35840;45.982;8.890;2024-02-28T01:13:32;98094.38;;;5.86;100.00
49949;BME280;35840;45.982;8.890;2024-02-28T01:15:59;98095.59;;;5.96;100.00
49949;BME280;35840;45.982;8.890;2024-02-28T01:18:26;98098.81;;;6.01;100.00
49949;BME280;35840;45.982;8.890;2024-02-28T01:20:57;98091.91;;;6.03;100.00
49949;BME280;35840;45.982;8.890;2024-02-28T01:23:24;98084.25;;;6.03;100.00
49949;BME280;35840;45.982;8.890;2024-02-28T01:25:51;98095.22;;;6.06;100.00
49949;BME280;35840;45.982;8.890;2024-02-28T01:28:18;98092.88;;;6.01;100.00
49949;BME280;35840;45.982;8.890;2024-02-28T01:30:45;98093.72;;;6.01;100.00
49949;BME280;35840;45.982;8.890;2024-02-28T01:33:12;98095.16;;;6.07;100.00
49949;BME280;35840;45.982;8.890;2024-02-28T01:35:40;98079.75;;;5.90;100.00
49949;BME280;35840;45.982;8.890;2024-02-28T01:38:07;98096.84;;;6.07;100.00
49949;BME280;35840;45.982;8.890;2024-02-28T01:40:34;98097.63;;;6.09;100.00
49949;BME280;35840;45.982;8.890;2024-02-28T01:43:07;98100.19;;;6.09;100.00
49949;BME280;35840;45.982;8.890;2024-02-28T01:45:34;98091.00;;;6.05;100.00
49949;BME280;35840;45.982;8.890;2024-02-28T01:48:02;98100.09;;;6.10;100.00
49949;BME280;35840;45.982;8.890;2024-02-28T01:50:29;98110.25;;;6.12;100.00
49949;BME280;35840;45.982;8.890;2024-02-28T01:52:56;98106.03;;;6.11;100.00
49949;BME280;35840;45.982;8.890;2024-02-28T01:55:24;98094.44;;;6.03;100.00
49949;BME280;35840;45.982;8.890;2024-02-28T01:57:52;98114.59;;;6.10;100.00
49949;BME280;35840;45.982;8.890;2024-02-28T02:00:19;98106.94;;;6.10;100.00
49949;BME280;35840;45.982;8.890;2024-02-28T02:02:48;98122.00;;;5.95;100.00
49949;BME280;35840;45.982;8.890;2024-02-28T02:05:15;98132.66;;;5.86;100.00
49949;BME280;35840;45.982;8.890;2024-02-28T02:07:42;98111.25;;;5.69;100.00
49949;BME280;35840;45.982;8.890;2024-02-28T02:10:09;98126.44;;;5.92;100.00
49949;BME280;35840;45.982;8.890;2024-02-28T02:12:38;98133.03;;;5.97;100.00
49949;BME280;35840;45.982;8.890;2024-02-28T02:15:05;98139.81;;;5.97;100.00
49949;BME280;35840;45.982;8.890;2024-02-28T02:17:32;98138.78;;;6.01;100.00
49949;BME280;35840;45.982;8.890;2024-02-28T02:19:59;98141.22;;;6.04;100.00
49949;BME280;35840;45.982;8.890;2024-02-28T02:22:27;98134.25;;;6.08;100.00
49949;BME280;35840;45.982;8.890;2024-02-28T02:24:56;98134.31;;;6.06;100.00
49949;BME280;35840;45.982;8.890;2024-02-28T02:27:24;98126.88;;;6.01;100.00
49949;BME280;35840;45.982;8.890;2024-02-28T02:29:52;98140.19;;;6.08;100.00
49949;BME280;35840;45.982;8.890;2024-02-28T02:32:19;98137.22;;;5.98;100.00
49949;BME280;35840;45.982;8.890;2024-02-28T02:34:46;98137.09;;;6.01;100.00
49949;BME280;35840;45.982;8.890;2024-02-28T02:37:13;98116.56;;;5.84;100.00
49949;BME280;35840;45.982;8.890;2024-02-28T02:39:40;98143.09;;;6.00;100.00
49949;BME280;35840;45.982;8.890;2024-02-28T02:42:06;98139.41;;;5.87;100.00
49949;BME280;35840;45.982;8.890;2024-02-28T02:44:34;98139.06;;;5.76;100.00
49949;BME280;35840;45.982;8.890;2024-02-28T02:47:01;98150.66;;;5.83;100.00
49949;BME280;35840;45.982;8.890;2024-02-28T02:49:28;98140.16;;;5.89;100.00
49949;BME280;35840;45.982;8.890;2024-02-28T02:51:54;98148.50;;;5.93;100.00
49949;BME280;35840;45.982;8.890;2024-02-28T02:54:21;98139.19;;;5.92;100.00
49949;BME280;35840;45.982;8.890;2024-02-28T02:56:48;98131.34;;;5.77;100.00
49949;BME280;35840;45.982;8.890;2024-02-28T02:59:15;98153.69;;;5.91;100.00
49949;BME280;35840;45.982;8.890;2024-02-28T03:01:41;98150.28;;;5.91;100.00
49949;BME280;35840;45.982;8.890;2024-02-28T03:04:08;98146.72;;;5.95;100.00
49949;BME280;35840;45.982;8.890;2024-02-28T03:06:35;98151.69;;;5.98;100.00
49949;BME280;35840;45.982;8.890;2024-02-28T03:09:02;98163.25;;;5.86;100.00
49949;BME280;35840;45.982;8.890;2024-02-28T03:11:30;98171.88;;;5.83;100.00
49949;BME280;35840;45.982;8.890;2024-02-28T03:13:56;98161.44;;;5.88;100.00
49949;BME280;35840;45.982;8.890;2024-02-28T03:16:23;98168.00;;;5.94;100.00
49949;BME280;35840;45.982;8.890;2024-02-28T03:18:50;98161.59;;;5.85;100.00
49949;BME280;35840;45.982;8.890;2024-02-28T03:21:17;98166.19;;;5.77;100.00
49949;BME280;35840;45.982;8.890;2024-02-28T03:23:44;98146.00;;;5.72;100.00
49949;BME280;35840;45.982;8.890;2024-02-28T03:26:11;98176.69;;;5.90;100.00
49949;BME280;35840;45.982;8.890;2024-02-28T03:28:37;98172.50;;;5.89;100.00
49949;BME280;35840;45.982;8.890;2024-02-28T03:31:04;98176.00;;;5.86;100.00
49949;BME280;35840;45.982;8.890;2024-02-28T03:33:31;98177.69;;;5.87;100.00
49949;BME280;35840;45.982;8.890;2024-02-28T03:35:59;98174.97;;;5.90;100.00
49949;BME280;35840;45.982;8.890;2024-02-28T03:38:26;98164.50;;;5.77;100.00
49949;BME280;35840;45.982;8.890;2024-02-28T03:40:53;98178.06;;;5.78;100.00
49949;BME280;35840;45.982;8.890;2024-02-28T03:43:20;98185.78;;;5.76;100.00
49949;BME280;35840;45.982;8.890;2024-02-28T03:45:46;98184.06;;;5.77;100.00
49949;BME280;35840;45.982;8.890;2024-02-28T03:48:13;98188.28;;;5.78;100.00
49949;BME280;35840;45.982;8.890;2024-02-28T03:50:40;98183.38;;;5.73;100.00
49949;BME280;35840;45.982;8.890;2024-02-28T03:53:07;98190.00;;;5.77;100.00
49949;BME280;35840;45.982;8.890;2024-02-28T03:55:34;98189.66;;;5.85;100.00
49949;BME280;35840;45.982;8.890;2024-02-28T03:58:02;98168.56;;;5.81;100.00
49949;BME280;35840;45.982;8.890;2024-02-28T04:00:29;98190.00;;;5.96;100.00
49949;BME280;35840;45.982;8.890;2024-02-28T04:02:56;98184.16;;;5.94;100.00
49949;BME280;35840;45.982;8.890;2024-02-28T04:05:22;98181.59;;;5.94;100.00
49949;BME280;35840;45.982;8.890;2024-02-28T04:07:49;98183.59;;;5.88;100.00
49949;BME280;35840;45.982;8.890;2024-02-28T04:10:16;98175.31;;;5.82;100.00
49949;BME280;35840;45.982;8.890;2024-02-28T04:12:43;98189.25;;;5.94;100.00
49949;BME280;35840;45.982;8.890;2024-02-28T04:15:13;98167.59;;;5.84;100.00
49949;BME280;35840;45.982;8.890;2024-02-28T04:17:42;98189.78;;;5.82;100.00
49949;BME280;35840;45.982;8.890;2024-02-28T04:20:12;98187.25;;;5.82;100.00
49949;BME280;35840;45.982;8.890;2024-02-28T04:22:39;98180.69;;;5.76;100.00
49949;BME280;35840;45.982;8.890;2024-02-28T04:25:08;98184.13;;;5.75;100.00
49949;BME280;35840;45.982;8.890;2024-02-28T04:27:36;98188.84;;;5.84;100.00
49949;BME280;35840;45.982;8.890;2024-02-28T04:30:04;98200.28;;;5.95;100.00
49949;BME280;35840;45.982;8.890;2024-02-28T04:32:31;98203.72;;;5.94;100.00
49949;BME280;35840;45.982;8.890;2024-02-28T04:34:58;98184.19;;;5.74;100.00
49949;BME280;35840;45.982;8.890;2024-02-28T04:37:25;98201.94;;;5.96;100.00
49949;BME280;35840;45.982;8.890;2024-02-28T04:39:52;98209.94;;;5.88;100.00
49949;BME280;35840;45.982;8.890;2024-02-28T04:42:19;98213.03;;;5.95;100.00
49949;BME280;35840;45.982;8.890;2024-02-28T04:44:45;98217.50;;;5.90;100.00
49949;BME280;35840;45.982;8.890;2024-02-28T04:47:12;98216.97;;;5.83;100.00
49949;BME280;35840;45.982;8.890;2024-02-28T04:49:39;98209.47;;;5.80;100.00
49949;BME280;35840;45.982;8.890;2024-02-28T04:52:06;98220.03;;;5.91;100.00
49949;BME280;35840;45.982;8.890;2024-02-28T04:54:33;98225.88;;;5.93;100.00
49949;BME280;35840;45.982;8.890;2024-02-28T04:57:00;98229.13;;;5.97;100.00
49949;BME280;35840;45.982;8.890;2024-02-28T04:59:27;98233.59;;;5.92;100.00
49949;BME280;35840;45.982;8.890;2024-02-28T05:01:54;98237.03;;;5.91;100.00
49949;BME280;35840;45.982;8.890;2024-02-28T05:04:21;98235.19;;;5.94;100.00
49949;BME280;35840;45.982;8.890;2024-02-28T05:06:48;98240.28;;;5.94;100.00
49949;BME280;35840;45.982;8.890;2024-02-28T05:09:15;98241.19;;;5.93;100.00
49949;BME280;35840;45.982;8.890;2024-02-28T05:11:44;98251.22;;;5.98;100.00
49949;BME280;35840;45.982;8.890;2024-02-28T05:14:11;98256.63;;;5.90;100.00
49949;BME280;35840;45.982;8.890;2024-02-28T05:16:37;98252.19;;;5.94;100.00
49949;BME280;35840;45.982;8.890;2024-02-28T05:19:04;98233.16;;;5.82;100.00
49949;BME280;35840;45.982;8.890;2024-02-28T05:21:38;98267.38;;;5.98;100.00
49949;BME280;35840;45.982;8.890;2024-02-28T05:24:05;98257.84;;;6.02;100.00
49949;BME280;35840;45.982;8.890;2024-02-28T05:26:34;98265.28;;;6.07;100.00
49949;BME280;35840;45.982;8.890;2024-02-28T05:29:02;98271.44;;;6.02;100.00
49949;BME280;35840;45.982;8.890;2024-02-28T05:31:30;98273.47;;;5.94;100.00
49949;BME280;35840;45.982;8.890;2024-02-28T05:34:00;98284.41;;;5.96;100.00
49949;BME280;35840;45.982;8.890;2024-02-28T05:36:31;98253.91;;;5.74;100.00
49949;BME280;35840;45.982;8.890;2024-02-28T05:38:59;98283.03;;;5.89;100.00
49949;BME280;35840;45.982;8.890;2024-02-28T05:41:27;98292.91;;;5.97;100.00
49949;BME280;35840;45.982;8.890;2024-02-28T05:43:55;98303.16;;;5.95;100.00
49949;BME280;35840;45.982;8.890;2024-02-28T05:46:22;98314.28;;;5.94;100.00
49949;BME280;35840;45.982;8.890;2024-02-28T05:48:49;98307.66;;;5.90;100.00
49949;BME280;35840;45.982;8.890;2024-02-28T05:51:16;98311.63;;;5.97;100.00
49949;BME280;35840;45.982;8.890;2024-02-28T05:53:43;98299.22;;;5.88;100.00
49949;BME280;35840;45.982;8.890;2024-02-28T05:56:10;98322.34;;;6.06;100.00
49949;BME280;35840;45.982;8.890;2024-02-28T05:58:44;98313.03;;;6.05;100.00
49949;BME280;35840;45.982;8.890;2024-02-28T06:01:12;98329.16;;;6.05;100.00
49949;BME280;35840;45.982;8.890;2024-02-28T06:03:41;98333.38;;;6.06;100.00
49949;BME280;35840;45.982;8.890;2024-02-28T06:06:08;98335.84;;;6.08;100.00
49949;BME280;35840;45.982;8.890;2024-02-28T06:08:38;98342.63;;;6.09;100.00
49949;BME280;35840;45.982;8.890;2024-02-28T06:11:05;98342.63;;;6.09;100.00
49949;BME280;35840;45.982;8.890;2024-02-28T06:13:32;98340.34;;;6.02;100.00
49949;BME280;35840;45.982;8.890;2024-02-28T06:15:59;98336.88;;;6.03;100.00
49949;BME280;35840;45.982;8.890;2024-02-28T06:18:26;98351.88;;;6.11;100.00
49949;BME280;35840;45.982;8.890;2024-02-28T06:20:54;98348.56;;;6.09;100.00
49949;BME280;35840;45.982;8.890;2024-02-28T06:23:22;98350.22;;;6.10;100.00
49949;BME280;35840;45.982;8.890;2024-02-28T06:25:58;98355.66;;;6.02;100.00
49949;BME280;35840;45.982;8.890;2024-02-28T06:28:25;98357.16;;;6.07;100.00
49949;BME280;35840;45.982;8.890;2024-02-28T06:30:52;98360.75;;;6.02;100.00
49949;BME280;35840;45.982;8.890;2024-02-28T06:33:19;98350.66;;;5.99;100.00
49949;BME280;35840;45.982;8.890;2024-02-28T06:35:46;98364.06;;;6.05;100.00
49949;BME280;35840;45.982;8.890;2024-02-28T06:38:13;98356.63;;;6.00;100.00
49949;BME280;35840;45.982;8.890;2024-02-28T06:40:40;98363.19;;;6.06;100.00
49949;BME280;35840;45.982;8.890;2024-02-28T06:43:08;98373.19;;;6.10;100.00
49949;BME280;35840;45.982;8.890;2024-02-28T06:45:35;98363.41;;;5.99;100.00
49949;BME280;35840;45.982;8.890;2024-02-28T06:48:04;98368.00;;;5.91;100.00
49949;BME280;35840;45.982;8.890;2024-02-28T06:50:31;98374.81;;;5.91;100.00
49949;BME280;35840;45.982;8.890;2024-02-28T06:52:58;98380.63;;;5.94;100.00
49949;BME280;35840;45.982;8.890;2024-02-28T06:55:24;98377.28;;;5.92;100.00
49949;BME280;35840;45.982;8.890;2024-02-28T06:57:51;98384.69;;;6.00;100.00
49949;BME280;35840;45.982;8.890;2024-02-28T07:00:18;98378.06;;;5.94;100.00
49949;BME280;35840;45.982;8.890;2024-02-28T07:02:46;98376.28;;;5.96;100.00
49949;BME280;35840;45.982;8.890;2024-02-28T07:05:13;98384.13;;;5.92;100.00
49949;BME280;35840;45.982;8.890;2024-02-28T07:07:40;98387.50;;;5.92;100.00
49949;BME280;35840;45.982;8.890;2024-02-28T07:10:07;98384.19;;;5.90;100.00
49949;BME280;35840;45.982;8.890;2024-02-28T07:12:34;98387.69;;;5.88;100.00
49949;BME280;35840;45.982;8.890;2024-02-28T07:15:01;98385.91;;;5.90;100.00
49949;BME280;35840;45.982;8.890;2024-02-28T07:17:28;98385.97;;;5.88;100.00
49949;BME280;35840;45.982;8.890;2024-02-28T07:19:54;98385.72;;;5.94;100.00
49949;BME280;35840;45.982;8.890;2024-02-28T07:22:21;98384.47;;;6.05;100.00
49949;BME280;35840;45.982;8.890;2024-02-28T07:24:48;98395.34;;;6.10;100.00
49949;BME280;35840;45.982;8.890;2024-02-28T07:27:15;98389.22;;;6.14;100.00
49949;BME280;35840;45.982;8.890;2024-02-28T07:29:45;98392.53;;;6.16;100.00
49949;BME280;35840;45.982;8.890;2024-02-28T07:32:12;98390.16;;;6.11;100.00
49949;BME280;35840;45.982;8.890;2024-02-28T07:34:39;98403.94;;;6.07;100.00
49949;BME280;35840;45.982;8.890;2024-02-28T07:37:06;98392.06;;;6.06;100.00
49949;BME280;35840;45.982;8.890;2024-02-28T07:39:34;98387.09;;;6.03;100.00
49949;BME280;35840;45.982;8.890;2024-02-28T07:42:01;98363.72;;;5.92;100.00
49949;BME280;35840;45.982;8.890;2024-02-28T07:44:28;98386.16;;;6.06;100.00
49949;BME280;35840;45.982;8.890;2024-02-28T07:46:58;98392.84;;;6.08;100.00
49949;BME280;35840;45.982;8.890;2024-02-28T07:49:25;98396.28;;;6.07;100.00
49949;BME280;35840;45.982;8.890;2024-02-28T07:51:54;98397.75;;;6.13;100.00
49949;BME280;35840;45.982;8.890;2024-02-28T07:54:21;98394.94;;;6.19;100.00
49949;BME280;35840;45.982;8.890;2024-02-28T07:56:48;98380.09;;;6.08;100.00
49949;BME280;35840;45.982;8.890;2024-02-28T07:59:15;98401.56;;;6.23;100.00
49949;BME280;35840;45.982;8.890;2024-02-28T08:01:42;98400.41;;;6.30;100.00
49949;BME280;35840;45.982;8.890;2024-02-28T08:04:09;98407.88;;;6.35;100.00
49949;BME280;35840;45.982;8.890;2024-02-28T08:06:36;98412.09;;;6.36;100.00
49949;BME280;35840;45.982;8.890;2024-02-28T08:09:03;98415.50;;;6.36;100.00
49949;BME280;35840;45.982;8.890;2024-02-28T08:11:30;98415.75;;;6.30;100.00
49949;BME280;35840;45.982;8.890;2024-02-28T08:13:58;98426.47;;;6.38;100.00
49949;BME280;35840;45.982;8.890;2024-02-28T08:16:24;98426.47;;;6.38;100.00
49949;BME280;35840;45.982;8.890;2024-02-28T08:18:54;98425.50;;;6.41;100.00
49949;BME280;35840;45.982;8.890;2024-02-28T08:21:21;98426.34;;;6.42;100.00
49949;BME280;35840;45.982;8.890;2024-02-28T08:23:48;98443.13;;;6.47;100.00
49949;BME280;35840;45.982;8.890;2024-02-28T08:26:15;98449.06;;;6.48;100.00
49949;BME280;35840;45.982;8.890;2024-02-28T08:28:42;98448.28;;;6.46;100.00
49949;BME280;35840;45.982;8.890;2024-02-28T08:31:08;98455.00;;;6.48;100.00
49949;BME280;35840;45.982;8.890;2024-02-28T08:33:35;98456.59;;;6.51;100.00
49949;BME280;35840;45.982;8.890;2024-02-28T08:36:02;98455.59;;;6.55;100.00
49949;BME280;35840;45.982;8.890;2024-02-28T08:38:29;98463.03;;;6.60;100.00
49949;BME280;35840;45.982;8.890;2024-02-28T08:40:56;98455.50;;;6.57;100.00
49949;BME280;35840;45.982;8.890;2024-02-28T08:43:23;98466.34;;;6.62;100.00
49949;BME280;35840;45.982;8.890;2024-02-28T08:45:50;98468.84;;;6.63;100.00
49949;BME280;35840;45.982;8.890;2024-02-28T08:48:18;98474.78;;;6.64;100.00
49949;BME280;35840;45.982;8.890;2024-02-28T08:50:45;98467.88;;;6.66;100.00
49949;BME280;35840;45.982;8.890;2024-02-28T08:53:12;98470.22;;;6.70;100.00
49949;BME280;35840;45.982;8.890;2024-02-28T08:55:39;98475.97;;;6.76;100.00
49949;BME280;35840;45.982;8.890;2024-02-28T08:58:05;98487.94;;;6.75;100.00
49949;BME280;35840;45.982;8.890;2024-02-28T09:00:32;98472.78;;;6.70;100.00
49949;BME280;35840;45.982;8.890;2024-02-28T09:02:59;98484.88;;;6.67;100.00
49949;BME280;35840;45.982;8.890;2024-02-28T09:05:26;98481.53;;;6.65;100.00
49949;BME280;35840;45.982;8.890;2024-02-28T09:07:53;98488.09;;;6.70;100.00
49949;BME280;35840;45.982;8.890;2024-02-28T09:10:21;98489.72;;;6.73;100.00
49949;BME280;35840;45.982;8.890;2024-02-28T09:12:51;98485.09;;;6.81;100.00
49949;BME280;35840;45.982;8.890;2024-02-28T09:15:18;98493.47;;;6.85;100.00
49949;BME280;35840;45.982;8.890;2024-02-28T09:17:45;98503.72;;;6.85;100.00
49949;BME280;35840;45.982;8.890;2024-02-28T09:20:12;98492.78;;;6.81;100.00
49949;BME280;35840;45.982;8.890;2024-02-28T09:22:39;98502.78;;;6.86;100.00
49949;BME280;35840;45.982;8.890;2024-02-28T09:25:07;98511.53;;;6.80;100.00
49949;BME280;35840;45.982;8.890;2024-02-28T09:27:36;98513.16;;;6.83;100.00
49949;BME280;35840;45.982;8.890;2024-02-28T09:30:04;98512.25;;;6.84;100.00
49949;BME280;35840;45.982;8.890;2024-02-28T09:32:31;98511.03;;;6.93;100.00
49949;BME280;35840;45.982;8.890;2024-02-28T09:34:58;98509.94;;;6.98;100.00
49949;BME280;35840;45.982;8.890;2024-02-28T09:37:25;98521.69;;;7.02;100.00
49949;BME280;35840;45.982;8.890;2024-02-28T09:39:52;98527.50;;;7.06;100.00
49949;BME280;35840;45.982;8.890;2024-02-28T09:42:20;98521.41;;;7.09;100.00
49949;BME280;35840;45.982;8.890;2024-02-28T09:44:48;98520.44;;;7.11;100.00
49949;BME280;35840;45.982;8.890;2024-02-28T09:47:15;98512.84;;;7.10;100.00
49949;BME280;35840;45.982;8.890;2024-02-28T09:49:42;98512.94;;;7.08;100.00
49949;BME280;35840;45.982;8.890;2024-02-28T09:52:09;98517.22;;;7.07;100.00
49949;BME280;35840;45.982;8.890;2024-02-28T09:54:37;98518.59;;;7.15;100.00
49949;BME280;35840;45.982;8.890;2024-02-28T09:57:04;98505.41;;;7.05;100.00
49949;BME280;35840;45.982;8.890;2024-02-28T09:59:31;98497.00;;;7.01;100.00
49949;BME280;35840;45.982;8.890;2024-02-28T10:02:17;98521.78;;;7.20;100.00
49949;BME280;35840;45.982;8.890;2024-02-28T10:04:47;98516.34;;;7.28;100.00
49949;BME280;35840;45.982;8.890;2024-02-28T10:07:14;98531.69;;;7.47;100.00
49949;BME280;35840;45.982;8.890;2024-02-28T10:09:41;98527.94;;;7.54;100.00
49949;BME280;35840;45.982;8.890;2024-02-28T10:12:09;98525.94;;;7.61;100.00
49949;BME280;35840;45.982;8.890;2024-02-28T10:14:36;98527.09;;;7.72;100.00
49949;BME280;35840;45.982;8.890;2024-02-28T10:17:05;98524.50;;;7.74;100.00
49949;BME280;35840;45.982;8.890;2024-02-28T10:19:32;98527.31;;;7.87;100.00
49949;BME280;35840;45.982;8.890;2024-02-28T10:21:59;98516.28;;;7.85;100.00
49949;BME280;35840;45.982;8.890;2024-02-28T10:24:26;98529.56;;;7.93;100.00
49949;BME280;35840;45.982;8.890;2024-02-28T10:26:53;98506.59;;;7.91;100.00
49949;BME280;35840;45.982;8.890;2024-02-28T10:29:24;98531.63;;;8.04;100.00
49949;BME280;35840;45.982;8.890;2024-02-28T10:31:51;98526.44;;;8.05;100.00
49949;BME280;35840;45.982;8.890;2024-02-28T10:34:19;98531.88;;;8.17;100.00
49949;BME280;35840;45.982;8.890;2024-02-28T10:36:46;98542.06;;;8.36;100.00
49949;BME280;35840;45.982;8.890;2024-02-28T10:39:13;98538.44;;;8.40;100.00
49949;BME280;35840;45.982;8.890;2024-02-28T10:41:41;98541.56;;;8.47;100.00
49949;BME280;35840;45.982;8.890;2024-02-28T10:44:09;98551.19;;;8.59;100.00
49949;BME280;35840;45.982;8.890;2024-02-28T10:46:39;98541.03;;;8.57;100.00
49949;BME280;35840;45.982;8.890;2024-02-28T10:49:06;98548.78;;;8.56;100.00
49949;BME280;35840;45.982;8.890;2024-02-28T10:51:35;98537.63;;;8.74;100.00
49949;BME280;35840;45.982;8.890;2024-02-28T10:54:09;98536.88;;;8.72;100.00
49949;BME280;35840;45.982;8.890;2024-02-28T10:56:42;98528.50;;;8.69;100.00
49949;BME280;35840;45.982;8.890;2024-02-28T10:59:11;98536.81;;;8.74;100.00
49949;BME280;35840;45.982;8.890;2024-02-28T11:01:41;98531.28;;;8.82;100.00
49949;BME280;35840;45.982;8.890;2024-02-28T11:04:10;98540.47;;;8.86;100.00
49949;BME280;35840;45.982;8.890;2024-02-28T11:06:51;98511.09;;;8.75;100.00
49949;BME280;35840;45.982;8.890;2024-02-28T11:09:23;98520.53;;;9.08;100.00
49949;BME280;35840;45.982;8.890;2024-02-28T11:11:51;98521.88;;;9.16;100.00
49949;BME280;35840;45.982;8.890;2024-02-28T11:14:19;98520.66;;;9.23;100.00
49949;BME280;35840;45.982;8.890;2024-02-28T11:17:01;98510.16;;;9.43;100.00
49949;BME280;35840;45.982;8.890;2024-02-28T11:19:29;98502.53;;;9.58;100.00
49949;BME280;35840;45.982;8.890;2024-02-28T11:22:01;98510.66;;;9.82;100.00
49949;BME280;35840;45.982;8.890;2024-02-28T11:24:33;98508.47;;;10.06;100.00
49949;BME280;35840;45.982;8.890;2024-02-28T11:27:00;98514.50;;;10.21;100.00
49949;BME280;35840;45.982;8.890;2024-02-28T11:29:29;98508.59;;;10.35;100.00
49949;BME280;35840;45.982;8.890;2024-02-28T11:31:57;98513.13;;;10.60;100.00
49949;BME280;35840;45.982;8.890;2024-02-28T11:34:24;98511.78;;;10.55;100.00
49949;BME280;35840;45.982;8.890;2024-02-28T11:36:51;98502.94;;;10.59;100.00
49949;BME280;35840;45.982;8.890;2024-02-28T11:39:20;98504.50;;;10.61;100.00
49949;BME280;35840;45.982;8.890;2024-02-28T11:41:48;98504.22;;;10.51;100.00
49949;BME280;35840;45.982;8.890;2024-02-28T11:44:17;98501.56;;;10.53;100.00
49949;BME280;35840;45.982;8.890;2024-02-28T11:46:48;98494.88;;;10.50;100.00
49949;BME280;35840;45.982;8.890;2024-02-28T11:49:16;98485.69;;;10.61;100.00
49949;BME280;35840;45.982;8.890;2024-02-28T11:51:44;98484.06;;;10.74;100.00
49949;BME280;35840;45.982;8.890;2024-02-28T11:54:11;98475.31;;;10.91;100.00
49949;BME280;35840;45.982;8.890;2024-02-28T11:56:38;98477.91;;;11.20;100.00
49949;BME280;35840;45.982;8.890;2024-02-28T11:59:06;98470.63;;;11.12;100.00
49949;BME280;35840;45.982;8.890;2024-02-28T12:01:35;98456.03;;;11.13;100.00
49949;BME280;35840;45.982;8.890;2024-02-28T12:04:04;98467.63;;;11.20;100.00
49949;BME280;35840;45.982;8.890;2024-02-28T12:06:35;98461.22;;;11.40;99.36
49949;BME280;35840;45.982;8.890;2024-02-28T12:09:11;98455.97;;;11.42;98.78
49949;BME280;35840;45.982;8.890;2024-02-28T12:11:50;98449.19;;;11.68;100.00
49949;BME280;35840;45.982;8.890;2024-02-28T12:14:16;98453.69;;;11.92;100.00
49949;BME280;35840;45.982;8.890;2024-02-28T12:16:43;98446.06;;;11.90;94.01
49949;BME280;35840;45.982;8.890;2024-02-28T12:19:12;98449.44;;;12.05;95.54
49949;BME280;35840;45.982;8.890;2024-02-28T12:21:41;98441.19;;;12.00;95.04
49949;BME280;35840;45.982;8.890;2024-02-28T12:24:10;98439.53;;;12.12;98.49
49949;BME280;35840;45.982;8.890;2024-02-28T12:26:38;98428.31;;;12.26;97.81
49949;BME280;35840;45.982;8.890;2024-02-28T12:29:06;98431.44;;;12.31;92.92
49949;BME280;35840;45.982;8.890;2024-02-28T12:31:33;98421.34;;;12.28;93.03
49949;BME280;35840;45.982;8.890;2024-02-28T12:33:59;98419.47;;;12.17;90.99
49949;BME280;35840;45.982;8.890;2024-02-28T12:36:26;98412.03;;;12.25;91.90
49949;BME280;35840;45.982;8.890;2024-02-28T12:38:54;98396.38;;;12.15;92.09
49949;BME280;35840;45.982;8.890;2024-02-28T12:41:20;98407.38;;;12.30;87.82
49949;BME280;35840;45.982;8.890;2024-02-28T12:43:47;98404.19;;;12.52;86.88
49949;BME280;35840;45.982;8.890;2024-02-28T12:46:14;98392.75;;;12.56;86.25
49949;BME280;35840;45.982;8.890;2024-02-28T12:48:42;98393.97;;;12.64;89.19
49949;BME280;35840;45.982;8.890;2024-02-28T12:51:21;98390.34;;;12.79;86.91
49949;BME280;35840;45.982;8.890;2024-02-28T12:54:01;98386.13;;;12.78;88.66
49949;BME280;35840;45.982;8.890;2024-02-28T12:56:28;98385.97;;;12.92;89.26
49949;BME280;35840;45.982;8.890;2024-02-28T12:58:55;98380.44;;;12.86;84.95
49949;BME280;35840;45.982;8.890;2024-02-28T13:01:22;98376.59;;;12.91;84.54
49949;BME280;35840;45.982;8.890;2024-02-28T13:03:49;98373.59;;;12.98;84.51